Terminal Aerodrome Forecast
Issued by NWS Los Angeles, CA

Home | Current Version | Previous Version | Text Only | Print | Product List | Glossary On
Versions: 1 2 3 4 5 6 7 8 9 10 11 12 13
000
FTUS46 KLOX 261100 RRA
TAFSMX
TAF
KSMX 261139Z 2612/2712 VRB05KT P6SM BKN200
     FM262000 14009KT P6SM BKN070 OVC120
     FM270100 14006KT P6SM VCSH OVC100
     FM270300 VRB05KT P6SM VCSH OVC100
      TEMPO 2705/2709 P6SM -RA OVC100=

USA.gov is the U.S. government's official web portal to all federal, state and local government web resources and services.